createdAt,value
2019-03-05T00:00:24.006Z,0.00
2019-03-05T00:01:23.931Z,0.00
2019-03-05T00:02:23.844Z,0.00
2019-03-05T00:03:23.755Z,0.00
2019-03-05T00:04:23.670Z,0.00
2019-03-05T00:05:23.593Z,0.00
2019-03-05T00:06:23.512Z,0.00
2019-03-05T00:07:23.419Z,0.00
2019-03-05T00:08:23.331Z,0.00
2019-03-05T00:09:23.244Z,0.00
2019-03-05T00:10:23.182Z,0.00
2019-03-05T00:11:23.082Z,0.00
2019-03-05T00:12:22.996Z,0.00
2019-03-05T00:13:22.912Z,0.00
2019-03-05T00:14:22.832Z,0.00
2019-03-05T00:15:22.744Z,0.00
2019-03-05T00:16:22.658Z,0.00
2019-03-05T00:17:22.571Z,0.00
2019-03-05T00:18:22.482Z,0.00
2019-03-05T00:19:22.408Z,0.00
2019-03-05T00:20:22.320Z,0.00
2019-03-05T00:21:22.234Z,0.00
2019-03-05T00:22:22.146Z,0.00
2019-03-05T00:23:22.070Z,0.00
2019-03-05T00:24:21.983Z,0.00
2019-03-05T00:25:21.908Z,0.00
2019-03-05T00:26:21.809Z,0.00
2019-03-05T00:27:21.721Z,0.00
2019-03-05T00:28:21.645Z,0.00
2019-03-05T00:29:21.559Z,0.00
2019-03-05T00:30:21.470Z,0.00
2019-03-05T00:31:21.385Z,0.00
2019-03-05T00:32:21.310Z,0.00
2019-03-05T00:33:21.222Z,0.00
2019-03-05T00:34:21.134Z,0.00
2019-03-05T00:35:21.047Z,0.00
2019-03-05T00:36:20.971Z,0.00
2019-03-05T00:37:20.886Z,0.00
2019-03-05T00:38:20.812Z,0.00
2019-03-05T00:39:20.710Z,0.00
2019-03-05T00:40:20.622Z,0.00
2019-03-05T00:41:20.547Z,0.00
2019-03-05T00:42:20.722Z,0.00
2019-03-05T00:43:20.374Z,0.00
2019-03-05T00:44:20.286Z,0.00
2019-03-05T00:45:20.211Z,0.00
2019-03-05T00:46:20.122Z,0.00
2019-03-05T00:47:20.037Z,0.00
2019-03-05T00:48:19.961Z,0.00
2019-03-05T00:49:19.878Z,0.00
2019-03-05T00:50:19.794Z,0.00
2019-03-05T00:51:25.054Z,0.00
2019-03-05T00:52:19.612Z,0.00
2019-03-05T00:53:19.541Z,0.00
2019-03-05T00:54:19.449Z,0.00
2019-03-05T00:55:19.362Z,0.00
2019-03-05T00:56:19.274Z,0.00
2019-03-05T00:57:19.198Z,0.00
2019-03-05T00:58:19.116Z,0.00
2019-03-05T00:59:19.024Z,0.00
2019-03-05T01:00:18.938Z,0.00
2019-03-05T01:01:18.862Z,0.00
2019-03-05T01:02:19.027Z,0.00
2019-03-05T01:03:18.687Z,0.00
2019-03-05T01:04:18.599Z,0.00
2019-03-05T01:05:18.524Z,0.00
2019-03-05T01:06:18.437Z,0.00
2019-03-05T01:07:18.349Z,0.00
2019-03-05T01:08:19.724Z,0.00
2019-03-05T01:09:18.188Z,0.00
2019-03-05T01:10:18.100Z,0.00
2019-03-05T01:11:18.013Z,0.00
2019-03-05T01:12:17.925Z,0.00
2019-03-05T01:13:17.855Z,0.00
2019-03-05T01:14:17.764Z,0.00
2019-03-05T01:15:17.687Z,0.00
2019-03-05T01:16:17.588Z,0.00
2019-03-05T01:17:17.802Z,0.00
2019-03-05T01:18:17.427Z,0.00
2019-03-05T01:19:17.341Z,0.00
2019-03-05T01:20:17.252Z,0.00
2019-03-05T01:21:17.179Z,0.00
2019-03-05T01:22:17.092Z,0.00
2019-03-05T01:23:17.000Z,0.00
2019-03-05T01:24:16.914Z,0.00
2019-03-05T01:25:16.840Z,0.00
2019-03-05T01:26:16.754Z,0.00
2019-03-05T01:27:16.670Z,0.00
2019-03-05T01:28:16.577Z,0.00
2019-03-05T01:29:16.490Z,0.00
2019-03-05T01:30:16.414Z,0.00
2019-03-05T01:31:16.339Z,0.00
2019-03-05T01:32:16.240Z,0.00
2019-03-05T01:33:16.153Z,0.00
2019-03-05T01:34:16.080Z,0.00
2019-03-05T01:35:15.991Z,0.00
2019-03-05T01:36:15.906Z,0.00
2019-03-05T01:37:15.816Z,0.00
2019-03-05T01:38:15.741Z,0.00
2019-03-05T01:39:15.653Z,0.00
2019-03-05T01:40:15.568Z,0.00
2019-03-05T01:41:15.478Z,0.00
2019-03-05T01:42:15.403Z,0.00
2019-03-05T01:43:15.317Z,0.00
2019-03-05T01:44:15.228Z,0.00
2019-03-05T01:45:15.147Z,0.00
2019-03-05T01:46:15.066Z,0.00
2019-03-05T01:47:14.978Z,0.00
2019-03-05T01:48:14.892Z,0.00
2019-03-05T01:49:14.804Z,0.00
2019-03-05T01:50:14.717Z,0.00
2019-03-05T01:51:14.630Z,0.00
2019-03-05T01:52:14.554Z,0.00
2019-03-05T01:53:14.468Z,0.00
2019-03-05T01:54:14.379Z,0.00
2019-03-05T01:55:14.292Z,0.00
2019-03-05T01:56:14.218Z,0.00
2019-03-05T01:57:14.131Z,0.00
2019-03-05T01:58:14.043Z,0.00
2019-03-05T01:59:13.957Z,0.00
2019-03-05T02:00:13.880Z,0.00
2019-03-05T02:01:13.794Z,0.00
2019-03-05T02:02:13.955Z,0.00
2019-03-05T02:03:13.619Z,0.00
2019-03-05T02:04:13.531Z,0.00
2019-03-05T02:05:13.455Z,0.00
2019-03-05T02:06:13.369Z,0.00
2019-03-05T02:07:13.281Z,0.00
2019-03-05T02:08:13.194Z,0.00
2019-03-05T02:09:13.119Z,0.00
2019-03-05T02:10:13.031Z,0.00
2019-03-05T02:11:12.944Z,0.00
2019-03-05T02:12:12.856Z,0.00
2019-03-05T02:13:12.770Z,0.00
2019-03-05T02:14:12.684Z,0.00
2019-03-05T02:15:12.622Z,0.00
2019-03-05T02:16:12.520Z,0.00
2019-03-05T02:17:12.432Z,0.00
2019-03-05T02:18:12.358Z,0.00
2019-03-05T02:19:12.259Z,0.00
2019-03-05T02:20:12.182Z,0.00
2019-03-05T02:21:12.095Z,0.00
2019-03-05T02:22:12.259Z,0.00
2019-03-05T02:23:11.921Z,0.00
2019-03-05T02:24:11.834Z,0.00
2019-03-05T02:25:11.763Z,0.00
2019-03-05T02:26:11.673Z,0.00
2019-03-05T02:27:11.583Z,0.00
2019-03-05T02:28:11.498Z,0.00
2019-03-05T02:29:11.421Z,0.00
2019-03-05T02:30:11.335Z,0.00
2019-03-05T02:31:11.248Z,0.00
2019-03-05T02:32:11.158Z,0.00
2019-03-05T02:33:11.072Z,0.00
2019-03-05T02:34:10.986Z,0.00
2019-03-05T02:35:10.923Z,0.00
2019-03-05T02:36:10.822Z,0.00
2019-03-05T02:37:10.739Z,0.00
2019-03-05T02:38:10.649Z,0.00
2019-03-05T02:39:10.568Z,0.00
2019-03-05T02:40:10.492Z,0.00
2019-03-05T02:41:10.399Z,0.00
2019-03-05T02:42:10.311Z,0.00
2019-03-05T02:43:10.224Z,0.00
2019-03-05T02:44:10.158Z,0.00
2019-03-05T02:45:10.182Z,0.00
2019-03-05T02:46:09.974Z,0.00
2019-03-05T02:47:09.889Z,0.00
2019-03-05T02:48:09.823Z,0.00
2019-03-05T02:49:09.712Z,0.00
2019-03-05T02:50:09.638Z,0.00
2019-03-05T02:51:09.553Z,0.00
2019-03-05T02:52:09.460Z,0.00
2019-03-05T02:53:09.373Z,0.00
2019-03-05T02:54:09.287Z,0.00
2019-03-05T02:55:09.212Z,0.00
2019-03-05T02:56:09.124Z,0.00
2019-03-05T02:57:09.053Z,0.00
2019-03-05T02:58:08.952Z,0.00
2019-03-05T02:59:08.864Z,0.00
2019-03-05T03:00:08.779Z,0.00
2019-03-05T03:01:08.701Z,0.00
2019-03-05T03:02:08.868Z,0.00
2019-03-05T03:03:08.525Z,0.00
2019-03-05T03:04:08.451Z,0.00
2019-03-05T03:05:08.352Z,0.00
2019-03-05T03:06:08.276Z,0.00
2019-03-05T03:07:08.188Z,0.00
2019-03-05T03:08:08.116Z,0.00
2019-03-05T03:09:08.014Z,0.00
2019-03-05T03:10:07.930Z,0.00
2019-03-05T03:11:07.961Z,0.00
2019-03-05T03:12:07.763Z,0.00
2019-03-05T03:13:07.681Z,0.00
2019-03-05T03:14:07.740Z,0.00
2019-03-05T03:15:07.509Z,0.00
2019-03-05T03:16:07.415Z,0.00
2019-03-05T03:17:07.339Z,0.00
2019-03-05T03:18:07.252Z,0.00
2019-03-05T03:19:07.164Z,0.00
2019-03-05T03:20:07.078Z,0.00
2019-03-05T03:21:06.989Z,0.00
2019-03-05T03:22:06.915Z,0.00
2019-03-05T03:23:06.913Z,0.00
2019-03-05T03:24:06.740Z,0.00
2019-03-05T03:25:06.658Z,0.00
2019-03-05T03:26:06.568Z,0.00
2019-03-05T03:27:06.490Z,0.00
2019-03-05T03:28:06.404Z,0.00
2019-03-05T03:29:06.327Z,0.00
2019-03-05T03:30:06.229Z,0.00
2019-03-05T03:31:06.310Z,0.00
2019-03-05T03:32:06.116Z,0.00
2019-03-05T03:33:06.005Z,0.00
2019-03-05T03:34:05.911Z,0.00
2019-03-05T03:35:05.808Z,0.00
2019-03-05T03:36:05.720Z,0.00
2019-03-05T03:37:05.657Z,0.00
2019-03-05T03:38:05.561Z,0.00
2019-03-05T03:39:05.465Z,0.00
2019-03-05T03:40:06.223Z,0.00
2019-03-05T03:41:05.308Z,0.00
2019-03-05T03:42:05.222Z,0.00
2019-03-05T03:43:05.131Z,0.00
2019-03-05T03:44:05.042Z,0.00
2019-03-05T03:45:04.971Z,0.00
2019-03-05T03:46:04.873Z,0.00
2019-03-05T03:47:04.795Z,0.00
2019-03-05T03:48:04.707Z,0.00
2019-03-05T03:49:04.630Z,0.00
2019-03-05T03:50:04.530Z,0.00
2019-03-05T03:51:04.447Z,0.00
2019-03-05T03:52:04.372Z,0.00
2019-03-05T03:53:04.282Z,0.00
2019-03-05T03:54:04.194Z,0.00
2019-03-05T03:55:04.107Z,0.00
2019-03-05T03:56:04.030Z,0.00
2019-03-05T03:57:03.944Z,0.00
2019-03-05T03:58:03.856Z,0.00
2019-03-05T03:59:03.768Z,0.00
2019-03-05T04:00:03.698Z,0.00
2019-03-05T04:01:06.818Z,0.00
2019-03-05T04:02:03.776Z,0.00
2019-03-05T04:03:03.441Z,0.00
2019-03-05T04:04:03.344Z,0.00
2019-03-05T04:05:03.282Z,0.00
2019-03-05T04:06:03.181Z,0.00
2019-03-05T04:07:03.118Z,0.00
2019-03-05T04:08:03.017Z,0.00
2019-03-05T04:09:02.933Z,0.00
2019-03-05T04:10:02.845Z,0.00
2019-03-05T04:11:02.758Z,0.00
2019-03-05T04:12:02.683Z,0.00
2019-03-05T04:13:02.595Z,0.00
2019-03-05T04:14:02.510Z,0.00
2019-03-05T04:15:02.420Z,0.00
2019-03-05T04:16:02.336Z,0.00
2019-03-05T04:17:02.249Z,0.00
2019-03-05T04:18:02.178Z,0.00
2019-03-05T04:19:02.097Z,0.00
2019-03-05T04:20:02.000Z,0.00
2019-03-05T04:21:01.920Z,0.00
2019-03-05T04:22:02.087Z,0.00
2019-03-05T04:23:01.747Z,0.00
2019-03-05T04:24:01.660Z,0.00
2019-03-05T04:25:01.571Z,0.00
2019-03-05T04:26:01.510Z,0.00
2019-03-05T04:27:01.409Z,0.00
2019-03-05T04:28:01.324Z,0.00
2019-03-05T04:29:01.234Z,0.00
2019-03-05T04:30:01.239Z,0.00
2019-03-05T04:31:01.071Z,0.00
2019-03-05T04:32:00.984Z,0.00
2019-03-05T04:33:00.906Z,0.00
2019-03-05T04:34:00.822Z,0.00
2019-03-05T04:35:00.735Z,0.00
2019-03-05T04:36:00.646Z,0.00
2019-03-05T04:37:00.561Z,0.00
2019-03-05T04:38:00.473Z,0.00
2019-03-05T04:39:00.420Z,0.00
2019-03-05T04:40:02.989Z,0.00
2019-03-05T04:41:00.221Z,0.00
2019-03-05T04:42:00.174Z,0.00
2019-03-05T04:43:00.062Z,0.00
2019-03-05T04:43:59.972Z,0.00
2019-03-05T04:44:59.886Z,0.00
2019-03-05T04:45:59.813Z,0.00
2019-03-05T04:46:59.722Z,0.00
2019-03-05T04:47:59.635Z,0.00
2019-03-05T04:48:59.548Z,0.00
2019-03-05T04:49:59.473Z,0.00
2019-03-05T04:50:59.374Z,0.00
2019-03-05T04:51:59.298Z,0.00
2019-03-05T04:52:59.213Z,0.00
2019-03-05T04:53:59.123Z,0.00
2019-03-05T04:54:59.037Z,0.00
2019-03-05T04:55:58.961Z,0.00
2019-03-05T04:56:59.124Z,0.00
2019-03-05T04:57:58.788Z,0.00
2019-03-05T04:58:58.700Z,0.00
2019-03-05T04:59:58.637Z,0.00
2019-03-05T05:00:58.537Z,0.00
2019-03-05T05:01:58.463Z,0.00
2019-03-05T05:02:58.520Z,0.00
2019-03-05T05:03:58.279Z,0.00
2019-03-05T05:04:58.199Z,0.00
2019-03-05T05:05:58.117Z,0.00
2019-03-05T05:06:58.025Z,0.00
2019-03-05T05:07:57.938Z,0.00
2019-03-05T05:08:57.863Z,0.00
2019-03-05T05:09:57.776Z,0.00
2019-03-05T05:10:57.689Z,0.00
2019-03-05T05:11:57.600Z,0.00
2019-03-05T05:12:57.525Z,0.00
2019-03-05T05:13:57.441Z,0.00
2019-03-05T05:14:57.351Z,0.00
2019-03-05T05:15:57.264Z,0.00
2019-03-05T05:16:57.189Z,0.00
2019-03-05T05:17:57.101Z,0.00
2019-03-05T05:18:57.015Z,0.00
2019-03-05T05:19:56.926Z,0.00
2019-03-05T05:20:56.852Z,4.00
2019-03-05T05:21:56.766Z,4.00
2019-03-05T05:22:56.678Z,0.00
2019-03-05T05:23:56.590Z,4.00
2019-03-05T05:24:56.501Z,4.00
2019-03-05T05:25:56.427Z,8.00
2019-03-05T05:26:56.341Z,8.00
2019-03-05T05:27:56.252Z,8.00
2019-03-05T05:28:56.169Z,8.00
2019-03-05T05:29:56.090Z,12.00
2019-03-05T05:30:56.002Z,12.00
2019-03-05T05:31:58.313Z,12.00
2019-03-05T05:32:55.829Z,12.00
2019-03-05T05:33:55.743Z,16.00
2019-03-05T05:34:55.667Z,20.00
2019-03-05T05:35:55.580Z,24.00
2019-03-05T05:36:55.491Z,24.00
2019-03-05T05:37:55.407Z,24.00
2019-03-05T05:38:55.328Z,28.00
2019-03-05T05:39:55.244Z,32.00
2019-03-05T05:40:55.153Z,40.00
2019-03-05T05:41:55.068Z,40.00
2019-03-05T05:42:54.979Z,48.00
2019-03-05T05:43:54.911Z,52.00
2019-03-05T05:44:54.816Z,52.00
2019-03-05T05:45:54.743Z,56.00
2019-03-05T05:46:54.652Z,64.00
2019-03-05T05:47:54.571Z,72.00
2019-03-05T05:48:54.478Z,84.00
2019-03-05T05:49:54.392Z,96.00
2019-03-05T05:50:54.306Z,108.00
2019-03-05T05:51:54.245Z,120.00
2019-03-05T05:52:54.142Z,128.00
2019-03-05T05:53:54.055Z,144.00
2019-03-05T05:54:53.974Z,168.00
2019-03-05T05:55:53.882Z,176.00
2019-03-05T05:56:53.812Z,188.00
2019-03-05T05:57:53.720Z,224.00
2019-03-05T05:58:53.644Z,220.00
2019-03-05T05:59:53.543Z,256.00
2019-03-05T06:00:53.472Z,284.00
2019-03-05T06:01:53.382Z,300.00
2019-03-05T06:02:53.294Z,320.00
2019-03-05T06:03:53.206Z,348.00
2019-03-05T06:04:53.144Z,344.00
2019-03-05T06:05:53.045Z,364.00
2019-03-05T06:06:52.956Z,384.00
2019-03-05T06:07:52.876Z,436.00
2019-03-05T06:08:52.782Z,464.00
2019-03-05T06:09:52.706Z,488.00
2019-03-05T06:10:53.092Z,516.00
2019-03-05T06:11:52.534Z,556.00
2019-03-05T06:12:52.445Z,588.00
2019-03-05T06:13:52.377Z,620.00
2019-03-05T06:14:52.281Z,652.00
2019-03-05T06:15:52.195Z,676.00
2019-03-05T06:16:52.109Z,700.00
2019-03-05T06:17:52.031Z,716.00
2019-03-05T06:18:51.945Z,756.00
2019-03-05T06:19:51.857Z,800.00
2019-03-05T06:20:51.772Z,856.00
2019-03-05T06:21:51.934Z,900.00
2019-03-05T06:22:51.611Z,960.00
2019-03-05T06:23:51.522Z,1004.00
2019-03-05T06:24:51.434Z,1068.00
2019-03-05T06:25:51.351Z,1136.00
2019-03-05T06:26:51.271Z,1200.00
2019-03-05T06:27:51.183Z,1244.00
2019-03-05T06:28:51.096Z,1276.00
2019-03-05T06:29:51.011Z,1276.00
2019-03-05T06:30:50.921Z,1256.00
2019-03-05T06:31:50.847Z,1248.00
2019-03-05T06:32:50.770Z,1256.00
2019-03-05T06:33:50.672Z,1292.00
2019-03-05T06:34:50.583Z,1344.00
2019-03-05T06:35:50.519Z,1424.00
2019-03-05T06:36:50.423Z,1512.00
2019-03-05T06:37:50.335Z,1580.00
2019-03-05T06:38:50.248Z,1640.00
2019-03-05T06:39:50.172Z,1700.00
2019-03-05T06:40:50.085Z,1748.00
2019-03-05T06:41:50.298Z,1800.00
2019-03-05T06:42:49.924Z,1860.00
2019-03-05T06:43:49.836Z,1920.00
2019-03-05T06:44:49.753Z,1972.00
2019-03-05T06:45:49.660Z,2012.00
2019-03-05T06:46:49.573Z,2056.00
2019-03-05T06:47:49.486Z,2100.00
2019-03-05T06:48:49.412Z,2140.00
2019-03-05T06:49:49.324Z,2168.00
2019-03-05T06:50:49.235Z,2208.00
2019-03-05T06:51:49.149Z,2216.00
2019-03-05T06:52:49.074Z,2224.00
2019-03-05T06:53:48.986Z,2236.00
2019-03-05T06:54:48.901Z,2248.00
2019-03-05T06:55:48.813Z,2252.00
2019-03-05T06:56:48.737Z,2252.00
2019-03-05T06:57:48.651Z,2252.00
2019-03-05T06:58:48.562Z,2252.00
2019-03-05T06:59:48.479Z,2252.00
2019-03-05T07:00:48.400Z,2232.00
2019-03-05T07:01:48.320Z,2228.00
2019-03-05T07:02:48.225Z,2180.00
2019-03-05T07:03:48.149Z,2180.00
2019-03-05T07:04:48.062Z,2180.00
2019-03-05T07:05:47.976Z,2144.00
2019-03-05T07:06:47.888Z,2220.00
2019-03-05T07:07:47.812Z,2248.00
2019-03-05T07:08:47.714Z,2264.00
2019-03-05T07:09:47.650Z,2400.00
2019-03-05T07:10:47.567Z,2488.00
2019-03-05T07:11:47.463Z,2540.00
2019-03-05T07:12:47.377Z,2608.00
2019-03-05T07:13:47.301Z,2676.00
2019-03-05T07:14:47.215Z,2740.00
2019-03-05T07:15:47.127Z,2880.00
2019-03-05T07:16:47.051Z,3068.00
2019-03-05T07:17:46.963Z,2968.00
2019-03-05T07:18:46.877Z,3524.00
2019-03-05T07:19:54.519Z,3552.00
2019-03-05T07:20:46.714Z,3664.00
2019-03-05T07:21:46.628Z,4004.00
2019-03-05T07:22:46.538Z,4236.00
2019-03-05T07:23:46.453Z,4376.00
2019-03-05T07:24:46.377Z,4580.00
2019-03-05T07:25:46.289Z,4824.00
2019-03-05T07:26:46.203Z,4684.00
2019-03-05T07:27:46.115Z,4936.00
2019-03-05T07:28:46.109Z,4280.00
2019-03-05T07:29:45.953Z,5092.00
2019-03-05T07:30:45.868Z,4620.00
2019-03-05T07:31:45.811Z,5540.00
2019-03-05T07:32:45.706Z,5724.00
2019-03-05T07:33:45.615Z,6168.00
2019-03-05T07:34:45.541Z,5916.00
2019-03-05T07:35:45.453Z,7400.00
2019-03-05T07:36:45.422Z,5792.00
2019-03-05T07:37:45.291Z,4592.00
2019-03-05T07:38:45.205Z,3784.00
2019-03-05T07:39:45.116Z,3524.00
2019-03-05T07:40:45.042Z,3824.00
2019-03-05T07:41:45.204Z,2900.00
2019-03-05T07:42:44.868Z,3072.00
2019-03-05T07:43:44.791Z,3496.00
2019-03-05T07:44:44.706Z,5164.00
2019-03-05T07:45:44.633Z,5244.00
2019-03-05T07:46:44.547Z,4404.00
2019-03-05T07:47:44.460Z,6996.00
2019-03-05T07:48:44.380Z,5644.00
2019-03-05T07:49:44.460Z,4216.00
2019-03-05T07:50:44.206Z,5288.00
2019-03-05T07:51:44.130Z,4444.00
2019-03-05T07:52:44.042Z,5440.00
2019-03-05T07:53:43.963Z,5288.00
2019-03-05T07:54:43.881Z,6264.00
2019-03-05T07:55:43.794Z,4952.00
2019-03-05T07:56:43.717Z,4660.00
2019-03-05T07:57:43.631Z,5104.00
2019-03-05T07:58:43.554Z,5064.00
2019-03-05T07:59:43.471Z,6024.00
2019-03-05T08:00:43.383Z,5620.00
2019-03-05T08:01:43.293Z,5252.00
2019-03-05T08:02:43.231Z,3852.00
2019-03-05T08:03:43.131Z,4508.00
2019-03-05T08:04:43.043Z,4940.00
2019-03-05T08:05:42.970Z,4400.00
2019-03-05T08:06:42.883Z,5368.00
2019-03-05T08:07:42.793Z,4928.00
2019-03-05T08:08:42.733Z,5372.00
2019-03-05T08:09:42.633Z,5472.00
2019-03-05T08:10:42.544Z,7176.00
2019-03-05T08:11:42.469Z,7160.00
2019-03-05T08:12:42.382Z,7000.00
2019-03-05T08:13:42.298Z,5336.00
2019-03-05T08:14:42.235Z,4500.00
2019-03-05T08:15:42.134Z,4916.00
2019-03-05T08:16:42.046Z,5124.00
2019-03-05T08:17:41.970Z,4276.00
2019-03-05T08:18:41.884Z,4780.00
2019-03-05T08:19:41.796Z,4360.00
2019-03-05T08:20:41.721Z,5956.00
2019-03-05T08:21:41.884Z,7272.00
2019-03-05T08:22:41.548Z,5944.00
2019-03-05T08:23:41.473Z,7280.00
2019-03-05T08:24:41.384Z,5412.00
2019-03-05T08:25:41.313Z,6932.00
2019-03-05T08:26:41.234Z,5640.00
2019-03-05T08:27:41.135Z,4620.00
2019-03-05T08:28:41.065Z,6104.00
2019-03-05T08:29:40.972Z,4340.00
2019-03-05T08:30:40.884Z,4400.00
2019-03-05T08:31:40.812Z,3616.00
2019-03-05T08:32:40.721Z,2992.00
2019-03-05T08:33:40.636Z,3472.00
2019-03-05T08:34:40.560Z,5368.00
2019-03-05T08:35:40.475Z,5984.00
2019-03-05T08:36:40.386Z,4796.00
2019-03-05T08:37:40.311Z,4788.00
2019-03-05T08:38:40.223Z,6328.00
2019-03-05T08:39:40.136Z,8640.00
2019-03-05T08:40:40.061Z,5944.00
2019-03-05T08:41:39.972Z,4424.00
2019-03-05T08:42:39.886Z,4132.00
2019-03-05T08:43:39.811Z,7112.00
2019-03-05T08:44:50.046Z,5148.00
2019-03-05T08:45:39.701Z,8296.00
2019-03-05T08:46:39.561Z,4692.00
2019-03-05T08:47:39.476Z,6700.00
2019-03-05T08:48:39.386Z,4612.00
2019-03-05T08:49:39.312Z,5200.00
2019-03-05T08:50:39.223Z,12828.00
2019-03-05T08:51:39.149Z,12664.00
2019-03-05T08:52:39.062Z,8824.00
2019-03-05T08:53:49.016Z,7856.00
2019-03-05T08:54:38.899Z,6244.00
2019-03-05T08:55:38.816Z,7024.00
2019-03-05T08:56:38.737Z,6188.00
2019-03-05T08:57:38.649Z,5448.00
2019-03-05T08:58:38.571Z,5304.00
2019-03-05T08:59:38.490Z,6096.00
2019-03-05T09:00:38.399Z,5156.00
2019-03-05T09:01:38.315Z,5544.00
2019-03-05T09:02:47.989Z,4176.00
2019-03-05T09:03:38.150Z,3664.00
2019-03-05T09:04:38.076Z,4528.00
2019-03-05T09:05:37.989Z,5960.00
2019-03-05T09:06:37.900Z,7720.00
2019-03-05T09:07:37.825Z,6012.00
2019-03-05T09:08:38.460Z,6384.00
2019-03-05T09:09:37.651Z,8248.00
2019-03-05T09:10:37.576Z,9372.00
2019-03-05T09:11:37.489Z,9992.00
2019-03-05T09:12:37.415Z,10572.00
2019-03-05T09:13:37.326Z,8684.00
2019-03-05T09:14:37.239Z,10576.00
2019-03-05T09:15:37.164Z,7680.00
2019-03-05T09:16:37.079Z,5848.00
2019-03-05T09:17:36.990Z,5920.00
2019-03-05T09:18:36.917Z,5812.00
2019-03-05T09:19:36.826Z,6336.00
2019-03-05T09:20:36.765Z,5652.00
2019-03-05T09:21:36.665Z,5244.00
2019-03-05T09:22:36.577Z,7868.00
2019-03-05T09:23:36.502Z,6532.00
2019-03-05T09:24:36.426Z,6688.00
2019-03-05T09:25:36.340Z,7984.00
2019-03-05T09:26:36.309Z,9904.00
2019-03-05T09:27:36.165Z,8896.00
2019-03-05T09:28:36.090Z,8156.00
2019-03-05T09:29:36.015Z,7572.00
2019-03-05T09:30:35.917Z,10144.00
2019-03-05T09:31:35.841Z,10276.00
2019-03-05T09:32:35.771Z,11140.00
2019-03-05T09:33:35.681Z,10820.00
2019-03-05T09:34:35.591Z,9908.00
2019-03-05T09:35:35.516Z,8088.00
2019-03-05T09:36:35.428Z,8344.00
2019-03-05T09:37:35.347Z,6948.00
2019-03-05T09:38:35.254Z,9448.00
2019-03-05T09:39:35.180Z,6884.00
2019-03-05T09:40:35.093Z,7508.00
2019-03-05T09:41:35.017Z,4908.00
2019-03-05T09:42:39.847Z,6392.00
2019-03-05T09:43:34.846Z,6116.00
2019-03-05T09:44:34.767Z,4876.00
2019-03-05T09:45:34.679Z,4228.00
2019-03-05T09:46:34.618Z,3632.00
2019-03-05T09:47:34.518Z,3296.00
2019-03-05T09:48:34.429Z,3792.00
2019-03-05T09:49:34.354Z,5364.00
2019-03-05T09:50:34.268Z,4796.00
2019-03-05T09:51:34.181Z,4592.00
2019-03-05T09:52:34.106Z,5056.00
2019-03-05T09:53:34.021Z,4960.00
2019-03-05T09:54:33.932Z,5116.00
2019-03-05T09:55:33.861Z,5424.00
2019-03-05T09:56:33.769Z,6912.00
2019-03-05T09:57:33.694Z,4920.00
2019-03-05T09:58:33.618Z,5176.00
2019-03-05T09:59:33.519Z,5896.00
2019-03-05T10:00:33.449Z,5132.00
2019-03-05T10:01:33.356Z,5208.00
2019-03-05T10:02:33.269Z,5920.00
2019-03-05T10:03:33.195Z,6876.00
2019-03-05T10:04:33.118Z,6188.00
2019-03-05T10:05:33.037Z,5940.00
2019-03-05T10:06:32.944Z,6500.00
2019-03-05T10:07:32.856Z,8440.00
2019-03-05T10:08:32.966Z,10392.00
2019-03-05T10:09:32.696Z,9296.00
2019-03-05T10:10:32.607Z,6344.00
2019-03-05T10:11:32.532Z,4956.00
2019-03-05T10:12:32.447Z,7028.00
2019-03-05T10:13:32.357Z,9408.00
2019-03-05T10:14:32.283Z,10308.00
2019-03-05T10:15:32.197Z,9836.00
2019-03-05T10:16:32.109Z,9668.00
2019-03-05T10:17:37.902Z,9872.00
2019-03-05T10:18:31.945Z,10156.00
2019-03-05T10:19:31.871Z,10068.00
2019-03-05T10:20:31.784Z,8404.00
2019-03-05T10:21:31.708Z,8160.00
2019-03-05T10:22:31.621Z,8588.00
2019-03-05T10:23:31.534Z,9684.00
2019-03-05T10:24:31.446Z,11748.00
2019-03-05T10:25:31.376Z,11280.00
2019-03-05T10:26:31.283Z,9740.00
2019-03-05T10:27:31.208Z,7812.00
2019-03-05T10:28:31.122Z,6396.00
2019-03-05T10:29:31.035Z,6968.00
2019-03-05T10:30:30.961Z,5820.00
2019-03-05T10:31:33.157Z,5008.00
2019-03-05T10:32:30.797Z,7144.00
2019-03-05T10:33:30.709Z,5668.00
2019-03-05T10:34:30.628Z,7828.00
2019-03-05T10:35:30.548Z,6408.00
2019-03-05T10:36:30.460Z,7056.00
2019-03-05T10:37:30.384Z,7464.00
2019-03-05T10:38:30.297Z,7344.00
2019-03-05T10:39:31.357Z,9428.00
2019-03-05T10:40:30.135Z,10408.00
2019-03-05T10:41:30.065Z,10544.00
2019-03-05T10:42:31.938Z,11044.00
2019-03-05T10:43:29.886Z,10560.00
2019-03-05T10:44:29.798Z,7944.00
2019-03-05T10:45:29.725Z,7236.00
2019-03-05T10:46:29.636Z,10132.00
2019-03-05T10:47:29.549Z,11104.00
2019-03-05T10:48:30.393Z,8824.00
2019-03-05T10:49:29.388Z,7236.00
2019-03-05T10:50:29.312Z,10972.00
2019-03-05T10:51:29.224Z,8168.00
2019-03-05T10:52:29.149Z,5992.00
2019-03-05T10:53:29.064Z,7076.00
2019-03-05T10:54:28.989Z,10416.00
2019-03-05T10:55:28.900Z,9320.00
2019-03-05T10:56:28.824Z,8060.00
2019-03-05T10:57:28.737Z,9040.00
2019-03-05T10:58:33.730Z,10964.00
2019-03-05T10:59:28.563Z,8392.00
2019-03-05T11:00:28.488Z,8876.00
2019-03-05T11:01:28.401Z,6904.00
2019-03-05T11:02:28.327Z,7336.00
2019-03-05T11:03:28.237Z,6608.00
2019-03-05T11:04:28.163Z,5596.00
2019-03-05T11:05:28.081Z,8184.00
2019-03-05T11:06:27.988Z,9904.00
2019-03-05T11:07:27.913Z,9188.00
2019-03-05T11:08:27.830Z,8748.00
2019-03-05T11:09:27.751Z,7696.00
2019-03-05T11:10:27.676Z,7972.00
2019-03-05T11:11:27.588Z,8476.00
2019-03-05T11:12:27.505Z,7640.00
2019-03-05T11:13:27.417Z,7428.00
2019-03-05T11:14:27.341Z,7176.00
2019-03-05T11:15:27.251Z,5800.00
2019-03-05T11:16:30.842Z,3372.00
2019-03-05T11:17:27.089Z,2804.00
2019-03-05T11:18:29.861Z,2140.00
2019-03-05T11:19:26.927Z,2356.00
2019-03-05T11:20:26.839Z,2376.00
2019-03-05T11:21:27.016Z,3624.00
2019-03-05T11:22:26.677Z,5104.00
2019-03-05T11:23:26.594Z,7080.00
2019-03-05T11:24:26.515Z,5640.00
2019-03-05T11:25:26.430Z,3284.00
2019-03-05T11:26:26.353Z,3900.00
2019-03-05T11:27:26.265Z,6612.00
2019-03-05T11:28:26.179Z,10296.00
2019-03-05T11:29:26.104Z,9760.00
2019-03-05T11:30:35.596Z,8352.00
2019-03-05T11:31:25.940Z,7340.00
2019-03-05T11:32:25.854Z,6364.00
2019-03-05T11:33:25.767Z,6336.00
2019-03-05T11:34:25.704Z,6280.00
2019-03-05T11:35:25.606Z,7064.00
2019-03-05T11:36:25.528Z,8316.00
2019-03-05T11:37:25.441Z,8260.00
2019-03-05T11:38:25.354Z,7616.00
2019-03-05T11:39:25.279Z,7348.00
2019-03-05T11:40:25.197Z,6844.00
2019-03-05T11:41:25.116Z,6656.00
2019-03-05T11:42:25.029Z,6664.00
2019-03-05T11:43:24.948Z,3900.00
2019-03-05T11:44:24.867Z,2272.00
2019-03-05T11:45:24.787Z,3136.00
2019-03-05T11:46:24.693Z,5728.00
2019-03-05T11:47:24.619Z,4808.00
2019-03-05T11:48:24.533Z,3104.00
2019-03-05T11:49:24.467Z,2884.00
2019-03-05T11:50:24.367Z,2664.00
2019-03-05T11:51:24.286Z,2536.00
2019-03-05T11:52:24.206Z,2896.00
2019-03-05T11:53:24.120Z,3328.00
2019-03-05T11:54:24.035Z,5472.00
2019-03-05T11:55:23.966Z,6344.00
2019-03-05T11:56:23.868Z,4300.00
2019-03-05T11:57:23.795Z,2804.00
2019-03-05T11:58:23.707Z,2300.00
2019-03-05T11:59:23.619Z,2096.00
2019-03-05T12:00:23.543Z,2028.00
2019-03-05T12:01:23.457Z,1956.00
2019-03-05T12:02:23.369Z,1596.00
2019-03-05T12:03:23.294Z,1444.00
2019-03-05T12:04:23.206Z,1308.00
2019-03-05T12:05:23.121Z,1132.00
2019-03-05T12:06:23.044Z,1076.00
2019-03-05T12:07:22.958Z,1116.00
2019-03-05T12:08:22.882Z,1340.00
2019-03-05T12:09:22.794Z,1508.00
2019-03-05T12:10:22.707Z,2016.00
2019-03-05T12:11:22.635Z,2592.00
2019-03-05T12:12:22.557Z,2408.00
2019-03-05T12:13:22.458Z,2360.00
2019-03-05T12:14:22.386Z,2076.00
2019-03-05T12:15:22.295Z,1820.00
2019-03-05T12:16:22.208Z,2456.00
2019-03-05T12:17:22.134Z,1940.00
2019-03-05T12:18:22.045Z,1944.00
2019-03-05T12:19:21.958Z,2588.00
2019-03-05T12:20:21.886Z,4044.00
2019-03-05T12:21:21.796Z,7720.00
2019-03-05T12:22:21.708Z,8196.00
2019-03-05T12:23:21.634Z,6048.00
2019-03-05T12:24:24.197Z,4864.00
2019-03-05T12:25:23.672Z,3852.00
2019-03-05T12:26:21.384Z,3636.00
2019-03-05T12:27:21.296Z,3096.00
2019-03-05T12:28:21.209Z,2612.00
2019-03-05T12:29:21.136Z,3408.00
2019-03-05T12:30:21.049Z,3276.00
2019-03-05T12:31:20.960Z,3476.00
2019-03-05T12:32:20.885Z,4784.00
2019-03-05T12:33:20.797Z,4100.00
2019-03-05T12:34:20.710Z,3708.00
2019-03-05T12:35:20.636Z,3148.00
2019-03-05T12:36:20.547Z,2860.00